Time;durP1;ratioP1;P1;durP2;ratioP2;P2;SDS_P1;SDS_P2;PMS_P1;PMS_P2;Temp;Humidity;BMP_temperature;BMP_pressure;BME280_temperature;BME280_humidity;BME280_pressure;Samples;Min_cycle;Max_cycle;Signal;HPM_P1;HPM_P2
2022/12/27 00:00:29;;;;;;;;;19.25;18.25;;;;;8.31;62.35;102621.09;2399227;28;45180;-78
2022/12/27 00:01:40;;;;;;;;;18.75;16.75;;;;;8.31;62.23;102618.47;2405686;28;45586;-78
2022/12/27 00:02:50;;;;;;;;;20.50;15.50;;;;;8.31;62.17;102617.59;2412426;28;45603;-78
2022/12/27 00:04:01;;;;;;;;;19.00;17.50;;;;;8.31;62.41;102622.81;2412606;28;45313;-78
2022/12/27 00:05:12;;;;;;;;;19.00;14.00;;;;;8.31;62.44;102620.22;2413156;28;44687;-78
2022/12/27 00:06:24;;;;;;;;;21.00;17.25;;;;;8.32;62.75;102621.97;2412940;28;45314;-78
2022/12/27 00:07:34;;;;;;;;;20.00;14.50;;;;;8.33;62.34;102621.97;2410023;28;45223;-78
2022/12/27 00:08:46;;;;;;;;;16.00;14.75;;;;;8.35;62.48;102618.47;2403643;28;45593;-78
2022/12/27 00:09:57;;;;;;;;;13.50;12.00;;;;;8.36;62.56;102617.63;2403595;28;45212;-78
2022/12/27 00:11:15;;;;;;;;;12.75;11.25;;;;;8.36;62.87;102621.13;2401914;28;48137;-78
2022/12/27 00:12:25;;;;;;;;;15.75;12.50;;;;;8.37;62.91;102616.75;2404036;28;45477;-78
2022/12/27 00:13:36;;;;;;;;;11.25;10.00;;;;;8.38;62.81;102622.00;2411932;28;45229;-78
2022/12/27 00:14:46;;;;;;;;;14.75;12.50;;;;;8.39;62.62;102621.16;2413177;28;44732;-78
2022/12/27 00:16:02;;;;;;;;;10.75;9.50;;;;;8.40;62.42;102622.00;2413034;28;45191;-78
2022/12/27 00:17:12;;;;;;;;;8.25;8.00;;;;;8.42;62.76;102625.53;2413137;28;45329;-78
2022/12/27 00:18:23;;;;;;;;;15.50;14.00;;;;;8.43;62.83;102614.16;2413074;28;46163;-78
2022/12/27 00:19:33;;;;;;;;;15.25;12.50;;;;;8.43;62.82;102632.50;2413116;28;44711;-78
2022/12/27 00:20:43;;;;;;;;;14.50;12.25;;;;;8.42;62.37;102621.16;2413025;28;45317;-78
2022/12/27 00:21:54;;;;;;;;;14.50;12.00;;;;;8.44;62.39;102629.88;2402880;28;44584;-78
2022/12/27 00:23:05;;;;;;;;;17.00;12.25;;;;;8.46;62.61;102629.03;2404809;28;46385;-78
2022/12/27 00:24:15;;;;;;;;;12.50;12.25;;;;;8.44;62.70;102627.28;2413170;28;44608;-78
2022/12/27 00:25:26;;;;;;;;;7.75;6.50;;;;;8.44;62.83;102635.13;2412800;28;45437;-78
2022/12/27 00:26:38;;;;;;;;;10.50;9.00;;;;;8.44;62.72;102637.75;2402973;28;44659;-78
2022/12/27 00:27:48;;;;;;;;;12.00;9.75;;;;;8.44;62.42;102644.75;2405983;28;45304;-78
2022/12/27 00:28:59;;;;;;;;;10.75;8.50;;;;;8.46;62.38;102642.16;2412959;28;45635;-78
2022/12/27 00:30:10;;;;;;;;;12.50;9.00;;;;;8.44;62.43;102640.38;2412783;28;46311;-78
2022/12/27 00:31:22;;;;;;;;;14.25;12.75;;;;;8.44;62.63;102640.38;2413249;28;44742;-78
2022/12/27 00:32:33;;;;;;;;;29.00;27.25;;;;;8.43;62.47;102633.41;2412117;28;46623;-78
2022/12/27 00:33:45;;;;;;;;;23.75;21.25;;;;;8.44;61.99;102642.16;2398230;28;45290;-77
2022/12/27 00:34:55;;;;;;;;;27.50;24.75;;;;;8.43;62.15;102637.75;2405898;28;45295;-77
2022/12/27 00:36:08;;;;;;;;;29.50;25.00;;;;;8.42;62.28;102643.88;2412936;28;45238;-77
2022/12/27 00:37:19;;;;;;;;;38.00;31.50;;;;;8.42;62.67;102646.50;2402677;28;46858;-77
2022/12/27 00:38:30;;;;;;;;;46.50;37.25;;;;;8.41;62.31;102644.72;2405517;28;45556;-77
2022/12/27 00:39:40;;;;;;;;;43.75;35.00;;;;;8.42;62.44;102643.88;2412789;28;45385;-77
2022/12/27 00:40:51;;;;;;;;;49.25;38.00;;;;;8.39;62.23;102647.34;2412878;28;45335;-77
2022/12/27 00:42:02;;;;;;;;;42.25;36.25;;;;;8.37;62.29;102640.34;2412795;28;45428;-78
2022/12/27 00:43:12;;;;;;;;;49.00;40.00;;;;;8.37;62.16;102648.22;2412013;28;46516;-78
2022/12/27 00:44:23;;;;;;;;;45.00;37.50;;;;;8.37;62.77;102641.19;2412685;28;46085;-78
2022/12/27 00:45:33;;;;;;;;;51.00;39.25;;;;;8.35;62.25;102645.56;2412969;28;45200;-78
2022/12/27 00:46:43;;;;;;;;;44.75;38.00;;;;;8.35;62.68;102642.06;2412784;28;45417;-78
2022/12/27 00:47:54;;;;;;;;;45.75;37.00;;;;;8.33;62.81;102647.28;2412835;28;45234;-78
2022/12/27 00:49:04;;;;;;;;;42.75;33.75;;;;;8.30;62.23;102635.03;2412657;28;45595;-78
2022/12/27 00:50:15;;;;;;;;;41.25;36.25;;;;;8.30;62.66;102642.03;2411365;28;45270;-78
2022/12/27 00:51:25;;;;;;;;;38.25;34.25;;;;;8.29;62.55;102641.16;2412527;28;45354;-78
2022/12/27 00:52:36;;;;;;;;;38.50;34.25;;;;;8.28;62.58;102649.88;2393300;28;45285;-78
2022/12/27 00:53:48;;;;;;;;;34.25;31.00;;;;;8.26;62.46;102643.75;2395849;28;46534;-78
2022/12/27 00:54:58;;;;;;;;;26.00;23.75;;;;;8.24;62.52;102642.88;2403279;28;45428;-78
2022/12/27 00:56:15;;;;;;;;;32.00;24.75;;;;;8.24;62.61;102648.13;2403418;28;45372;-78
2022/12/27 00:57:26;;;;;;;;;19.25;18.00;;;;;8.22;62.67;102649.84;2403125;28;44529;-78
2022/12/27 00:58:36;;;;;;;;;21.75;18.50;;;;;8.20;62.43;102651.56;2409312;28;46245;-78
2022/12/27 00:59:47;;;;;;;;;18.50;15.25;;;;;8.19;62.59;102650.69;2411976;28;45218;-78
2022/12/27 01:01:08;;;;;;;;;19.00;16.75;;;;;8.19;62.93;102648.09;2412847;28;46572;-77
2022/12/27 01:02:18;;;;;;;;;12.25;12.25;;;;;8.19;62.80;102652.44;2412955;28;45198;-77
2022/12/27 01:03:29;;;;;;;;;16.50;13.50;;;;;8.15;63.14;102646.28;2412064;28;45411;-77
2022/12/27 01:04:39;;;;;;;;;11.75;10.75;;;;;8.16;63.31;102649.78;2413012;28;45309;-77
2022/12/27 01:05:49;;;;;;;;;10.75;10.00;;;;;8.15;63.04;102653.28;2412659;28;45304;-77
2022/12/27 01:07:00;;;;;;;;;8.25;8.00;;;;;8.16;63.28;102650.66;2412840;28;45183;-77
2022/12/27 01:08:10;;;;;;;;;11.50;9.75;;;;;8.17;62.83;102655.03;2412818;28;46297;-77
2022/12/27 01:09:21;;;;;;;;;10.00;8.50;;;;;8.16;63.23;102652.41;2412774;28;45338;-77
2022/12/27 01:10:32;;;;;;;;;13.00;9.25;;;;;8.17;63.37;102659.41;2409783;28;45272;-77
2022/12/27 01:11:42;;;;;;;;;10.00;8.25;;;;;8.18;62.97;102658.53;2411989;28;45418;-77
2022/12/27 01:12:53;;;;;;;;;9.75;9.00;;;;;8.17;63.48;102656.78;2412223;28;46512;-77
2022/12/27 01:14:03;;;;;;;;;9.75;8.00;;;;;8.16;63.12;102653.28;2404853;28;45365;-77
2022/12/27 01:15:14;;;;;;;;;12.50;8.25;;;;;8.18;63.04;102663.78;2411762;28;46513;-77
2022/12/27 01:16:26;;;;;;;;;8.50;8.50;;;;;8.18;63.60;102664.66;2407319;28;45257;-77
2022/12/27 01:17:36;;;;;;;;;9.00;7.00;;;;;8.19;63.17;102661.19;2402991;28;46438;-77
2022/12/27 01:18:47;;;;;;;;;14.00;9.00;;;;;8.20;63.27;102662.03;2403377;28;45247;-77
2022/12/27 01:19:58;;;;;;;;;10.50;9.00;;;;;8.19;63.53;102655.94;2403880;28;45571;-78
2022/12/27 01:21:11;;;;;;;;;10.75;10.00;;;;;8.21;63.12;102654.19;2408387;28;45175;-78
2022/12/27 01:22:21;;;;;;;;;7.75;7.75;;;;;8.21;63.47;102656.81;2405904;28;45476;-78
2022/12/27 01:23:32;;;;;;;;;8.50;7.50;;;;;8.24;63.62;102660.31;2411350;28;45393;-78
2022/12/27 01:24:42;;;;;;;;;5.75;4.25;;;;;8.21;63.50;102653.31;2401921;28;48341;-78
2022/12/27 01:26:04;;;;;;;;;7.75;7.75;;;;;8.22;63.10;102653.31;2394732;28;45477;-78
2022/12/27 01:27:15;;;;;;;;;10.00;7.25;;;;;8.24;63.06;102655.97;2406928;28;45442;-78
2022/12/27 01:28:25;;;;;;;;;11.25;9.00;;;;;8.23;62.94;102654.19;2404422;28;44779;-78
2022/12/27 01:29:35;;;;;;;;;12.25;8.00;;;;;8.23;63.61;102656.81;2402966;28;45421;-78
2022/12/27 01:30:46;;;;;;;;;6.50;5.75;;;;;8.24;63.56;102662.94;2411208;28;47005;-78
2022/12/27 01:31:56;;;;;;;;;11.50;8.00;;;;;8.25;62.93;102668.19;2412484;28;46232;-78
2022/12/27 01:33:07;;;;;;;;;8.25;7.50;;;;;8.26;63.02;102661.22;2412667;28;45247;-78
2022/12/27 01:34:17;;;;;;;;;9.00;6.00;;;;;8.26;63.66;102664.72;2412445;28;45424;-78
2022/12/27 01:35:28;;;;;;;;;10.25;8.00;;;;;8.26;63.01;102662.09;2412718;28;45233;-78
2022/12/27 01:36:38;;;;;;;;;8.25;7.50;;;;;8.27;63.10;102669.06;2412466;28;45359;-78
2022/12/27 01:37:48;;;;;;;;;9.25;7.75;;;;;8.27;63.29;102669.06;2402303;28;45248;-78
2022/12/27 01:38:59;;;;;;;;;7.50;7.25;;;;;8.29;63.49;102669.09;2405054;28;45500;-78
2022/12/27 01:40:10;;;;;;;;;13.50;9.50;;;;;8.28;63.38;102662.09;2411553;28;45254;-78
2022/12/27 01:43:17;;;;;;;;;7.50;7.50;;;;;8.30;63.60;102666.50;2403091;28;45314;-78
2022/12/27 01:44:48;;;;;;;;;6.25;6.25;;;;;8.31;63.87;102670.88;2404345;28;45508;-78
2022/12/27 01:45:58;;;;;;;;;7.00;7.00;;;;;8.31;63.66;102670.88;2412609;28;45265;-78
2022/12/27 01:47:15;;;;;;;;;7.75;6.00;;;;;8.34;63.37;102672.66;2412105;28;46264;-78
2022/12/27 01:48:25;;;;;;;;;16.25;9.50;;;;;8.32;63.51;102670.00;2412522;28;45207;-78
2022/12/27 01:49:41;;;;;;;;;10.25;9.00;;;;;8.35;63.28;102670.88;2412396;28;46307;-78
2022/12/27 01:51:00;;;;;;;;;7.25;6.00;;;;;8.35;62.75;102670.88;2411661;28;45287;-78
2022/12/27 01:52:12;;;;;;;;;7.00;7.00;;;;;8.35;63.58;102670.88;2403516;28;45429;-78
2022/12/27 01:53:50;;;;;;;;;6.00;6.00;;;;;8.36;62.90;102673.53;2403049;28;45346;-78
2022/12/27 01:55:19;;;;;;;;;6.25;6.25;;;;;8.36;62.99;102673.53;2400356;28;45348;-78
2022/12/27 01:56:30;;;;;;;;;7.75;7.00;;;;;8.36;63.25;102672.66;2392859;28;44743;-78
2022/12/27 01:57:41;;;;;;;;;9.50;5.75;;;;;8.35;63.68;102677.00;2399956;28;45440;-78
2022/12/27 01:59:04;;;;;;;;;6.50;6.25;;;;;8.35;62.93;102678.75;2403078;28;45337;-78
2022/12/27 02:00:15;;;;;;;;;6.00;6.00;;;;;8.37;63.17;102679.66;2402772;28;45466;-78
2022/12/27 02:01:37;;;;;;;;;7.00;7.00;;;;;8.36;63.43;102683.13;2392850;28;45230;-78
2022/12/27 02:02:48;;;;;;;;;8.50;6.75;;;;;8.37;63.02;102695.38;2397039;28;45652;-78
2022/12/27 02:04:09;;;;;;;;;7.25;6.00;;;;;8.38;63.22;102689.25;2402822;28;44763;-78
2022/12/27 02:05:22;;;;;;;;;6.25;5.75;;;;;8.37;63.43;102695.38;2402999;28;46583;-78
2022/12/27 02:06:35;;;;;;;;;8.50;6.00;;;;;8.37;63.13;102679.66;2405006;28;45441;-78
2022/12/27 02:07:58;;;;;;;;;7.25;6.00;;;;;8.39;63.34;102688.41;2402760;28;45339;-78
2022/12/27 02:09:28;;;;;;;;;10.75;6.00;;;;;8.38;63.57;102687.50;2402446;28;44697;-78
2022/12/27 02:10:39;;;;;;;;;5.25;4.00;;;;;8.38;63.46;102691.88;2407284;28;45379;-78
2022/12/27 02:11:55;;;;;;;;;8.00;6.00;;;;;8.38;63.16;102691.88;2412463;28;45357;-78
2022/12/27 02:13:06;;;;;;;;;11.75;6.00;;;;;8.38;63.15;102690.13;2404655;28;46009;-78
2022/12/27 02:14:22;;;;;;;;;7.00;6.00;;;;;8.39;63.25;102693.63;2402947;28;44589;-78
2022/12/27 02:15:32;;;;;;;;;8.00;7.50;;;;;8.41;63.24;102697.16;2403103;28;46549;-78
2022/12/27 02:16:43;;;;;;;;;6.00;6.00;;;;;8.39;63.60;102698.88;2412138;28;45278;-78
2022/12/27 02:17:53;;;;;;;;;8.00;6.00;;;;;8.39;63.46;102691.91;2411703;28;45343;-78
2022/12/27 02:19:17;;;;;;;;;7.25;6.25;;;;;8.37;63.67;102688.38;2402840;28;45156;-78
2022/12/27 02:20:34;;;;;;;;;6.00;6.00;;;;;8.39;63.42;102691.03;2402784;28;45405;-78
2022/12/27 02:22:04;;;;;;;;;8.50;6.00;;;;;8.39;63.30;102696.25;2402825;28;45262;-78
2022/12/27 02:25:53;;;;;;;;;5.50;5.50;;;;;8.39;63.56;102694.53;2402044;28;45346;-78
2022/12/27 02:27:24;;;;;;;;;10.00;7.00;;;;;8.40;63.47;102692.75;2373072;28;45505;-78
2022/12/27 02:28:40;;;;;;;;;8.00;6.00;;;;;8.39;63.59;102688.41;2398121;28;45497;-78
2022/12/27 02:30:12;;;;;;;;;6.00;5.50;;;;;8.41;63.65;102684.03;2412555;28;45536;-78
2022/12/27 02:31:39;;;;;;;;;5.00;5.00;;;;;8.40;63.73;102690.13;2417912;28;45266;-78
2022/12/27 02:32:55;;;;;;;;;6.00;5.00;;;;;8.41;63.74;102689.28;2410660;28;46008;-78
2022/12/27 02:34:14;;;;;;;;;6.50;5.25;;;;;8.40;63.66;102685.78;2411061;28;44714;-78
2022/12/27 02:35:32;;;;;;;;;6.50;5.00;;;;;8.40;63.37;102683.16;2412235;28;45246;-78
2022/12/27 02:36:45;;;;;;;;;5.00;5.00;;;;;8.41;63.33;102686.66;2411333;28;45357;-78
2022/12/27 02:38:01;;;;;;;;;6.00;4.00;;;;;8.43;63.83;102682.31;2412059;28;46457;-77
2022/12/27 02:39:15;;;;;;;;;7.75;6.25;;;;;8.41;63.47;102678.81;2412382;28;45342;-77
2022/12/27 02:53:20;;;;;;;;;11.00;7.00;;;;;8.40;63.22;102670.06;2402566;28;45380;-78
2022/12/27 02:54:52;;;;;;;;;5.50;5.00;;;;;8.39;63.69;102676.19;2402521;28;45448;-78
2022/12/27 02:57:56;;;;;;;;;8.25;7.00;;;;;8.39;63.68;102678.81;2402688;28;44774;-78
2022/12/27 03:03:19;;;;;;;;;7.50;4.75;;;;;8.40;63.56;102669.16;2402566;28;45477;-78
2022/12/27 03:03:39;;;;;;;;;6.00;6.00;;;;;8.39;63.47;102680.53;2411937;28;45455;-78
2022/12/27 03:04:55;;;;;;;;;13.00;6.25;;;;;8.38;63.91;102682.28;2402722;28;45420;-78
2022/12/27 03:06:41;;;;;;;;;8.50;5.50;;;;;8.38;63.39;102686.63;2410449;28;45364;-78
2022/12/27 03:08:07;;;;;;;;;5.75;5.00;;;;;8.37;63.74;102690.13;2412106;28;45233;-78
2022/12/27 03:16:13;;;;;;;;;9.25;4.50;;;;;8.36;63.88;102693.59;2412011;28;45314;-78
2022/12/27 03:17:39;;;;;;;;;7.00;6.50;;;;;8.36;63.17;102699.72;2411847;28;45513;-78
2022/12/27 03:18:52;;;;;;;;;7.00;7.00;;;;;8.37;63.52;102695.38;2409617;28;47015;-78
2022/12/27 03:26:13;;;;;;;;;7.25;7.00;;;;;8.36;63.45;102698.84;2413764;28;45235;-78
2022/12/27 03:27:31;;;;;;;;;9.50;5.75;;;;;8.35;63.29;102689.22;2413533;28;45352;-78
2022/12/27 03:33:16;;;;;;;;;7.00;5.00;;;;;8.32;63.63;102698.81;2413392;28;45659;-78
2022/12/27 03:34:38;;;;;;;;;6.50;5.00;;;;;8.33;63.71;102700.59;2403234;28;44626;-78
2022/12/27 03:39:32;;;;;;;;;9.75;6.00;;;;;8.32;63.73;102703.19;2365359;29;46169;-78
2022/12/27 03:43:53;;;;;;;;;8.50;6.25;;;;;8.33;63.64;102711.06;2404061;28;45252;-77
2022/12/27 03:45:05;;;;;;;;;11.50;7.00;;;;;8.32;63.24;102705.81;2409242;28;45424;-77
2022/12/27 03:46:35;;;;;;;;;8.25;6.00;;;;;8.33;63.98;102718.03;2410817;28;44596;-77
2022/12/27 03:47:54;;;;;;;;;5.75;5.75;;;;;8.33;63.76;102711.06;2403755;28;46073;-77
2022/12/27 03:49:32;;;;;;;;;9.25;9.25;;;;;8.33;63.70;102710.19;2405972;28;45257;-77
2022/12/27 03:50:49;;;;;;;;;6.00;6.00;;;;;8.31;63.60;102711.91;2411208;28;46310;-77
2022/12/27 03:52:09;;;;;;;;;11.50;7.25;;;;;8.31;63.73;102707.56;2404053;28;45396;-77
2022/12/27 03:53:20;;;;;;;;;9.75;8.00;;;;;8.31;63.93;102714.53;2403952;28;45658;-77
2022/12/27 03:54:40;;;;;;;;;9.50;7.50;;;;;8.30;63.99;102712.75;2403784;28;45241;-78
2022/12/27 03:55:50;;;;;;;;;12.25;8.00;;;;;8.29;64.15;102714.53;2399151;28;47511;-78
2022/12/27 03:57:05;;;;;;;;;7.75;7.25;;;;;8.29;64.05;102711.91;2405429;28;45422;-78
2022/12/27 03:58:16;;;;;;;;;8.50;8.00;;;;;8.29;63.95;102714.53;2403837;28;46169;-78
2022/12/27 03:59:27;;;;;;;;;7.00;4.25;;;;;8.30;63.49;102710.16;2403036;28;45252;-77
2022/12/27 04:00:37;;;;;;;;;13.50;8.25;;;;;8.28;63.58;102715.38;2403291;28;45278;-77
2022/12/27 04:01:48;;;;;;;;;11.00;8.25;;;;;8.29;63.95;102714.53;2403940;28;45302;-78
2022/12/27 04:02:58;;;;;;;;;8.25;8.25;;;;;8.28;63.61;102698.78;2403618;28;45402;-78
2022/12/27 04:04:08;;;;;;;;;8.00;7.00;;;;;8.27;63.76;102705.75;2403771;28;44743;-78
2022/12/27 04:05:19;;;;;;;;;7.00;7.00;;;;;8.26;63.74;102701.41;2404753;28;45546;-78
2022/12/27 04:06:29;;;;;;;;;12.75;9.00;;;;;8.26;63.67;102695.28;2412876;28;45242;-78
2022/12/27 04:34:41;;;;;;;;;14.00;9.25;;;;;7.99;64.11;102709.03;2413033;28;45438;-78
2022/12/27 04:35:52;;;;;;;;;14.25;8.75;;;;;7.98;64.16;102704.63;2413031;28;45286;-78
2022/12/27 04:37:02;;;;;;;;;11.75;6.75;;;;;7.97;63.80;102707.25;2412913;28;45447;-78
2022/12/27 04:38:12;;;;;;;;;9.00;7.75;;;;;7.96;64.33;102700.25;2413159;28;45184;-78
2022/12/27 04:39:23;;;;;;;;;10.00;8.75;;;;;7.95;64.04;102703.75;2412575;28;46433;-78
2022/12/27 04:55:27;;;;;;;;;5.50;3.75;;;;;7.81;64.94;102701.84;2412968;28;44741;-77
2022/12/27 04:56:38;;;;;;;;;16.25;11.50;;;;;7.81;64.82;102707.09;2412772;28;46430;-77
2022/12/27 04:57:49;;;;;;;;;4.00;2.00;;;;;7.82;64.73;102707.97;2413091;28;45179;-77
2022/12/27 05:02:04;;;;;;;;;15.75;13.25;;;;;7.82;64.58;102702.72;2411602;28;45758;-77
2022/12/27 05:03:22;;;;;;;;;16.00;12.50;;;;;7.80;64.59;102705.34;2412918;28;45226;-78
2022/12/27 05:04:35;;;;;;;;;17.75;14.25;;;;;7.81;64.87;102706.19;2405494;28;45353;-78
2022/12/27 05:05:49;;;;;;;;;15.00;11.75;;;;;7.80;64.50;102704.47;2403370;28;44694;-78
2022/12/27 05:13:58;;;;;;;;;11.50;10.00;;;;;7.80;64.67;102700.09;2402956;28;46593;-78
2022/12/27 05:14:31;;;;;;;;;11.25;11.25;;;;;7.80;65.19;102694.88;2412394;28;45269;-78
2022/12/27 05:15:42;;;;;;;;;9.00;9.00;;;;;7.79;65.07;102690.50;2412627;28;46317;-78
2022/12/27 05:16:52;;;;;;;;;13.25;9.50;;;;;7.80;64.65;102694.88;2412665;28;44719;-78
2022/12/27 05:18:03;;;;;;;;;14.50;12.25;;;;;7.80;64.72;102697.50;2412731;28;45424;-78
2022/12/27 05:19:14;;;;;;;;;14.75;10.25;;;;;7.82;64.46;102697.50;2411613;28;45214;-78
2022/12/27 05:20:24;;;;;;;;;15.00;13.50;;;;;7.79;64.74;102690.50;2411795;28;46625;-78
2022/12/27 05:21:36;;;;;;;;;15.50;14.00;;;;;7.80;64.73;102696.59;2412258;28;45234;-78
2022/12/27 05:25:45;;;;;;;;;17.00;15.25;;;;;7.77;64.71;102694.84;2412487;28;45771;-78
2022/12/27 05:26:55;;;;;;;;;12.25;9.25;;;;;7.76;64.60;102693.06;2412750;28;45168;-78
2022/12/27 05:28:08;;;;;;;;;16.00;12.25;;;;;7.76;64.85;102701.81;2412638;28;45221;-78
2022/12/27 05:29:19;;;;;;;;;12.00;10.50;;;;;7.74;64.90;102694.78;2401345;28;46982;-78
2022/12/27 05:30:32;;;;;;;;;14.00;12.50;;;;;7.75;64.96;102696.56;2405055;28;46392;-78
2022/12/27 05:31:43;;;;;;;;;12.00;10.75;;;;;7.73;65.09;102703.53;2412775;28;45313;-78
2022/12/27 05:32:54;;;;;;;;;14.25;12.25;;;;;7.73;65.21;102698.28;2412557;28;45586;-78
2022/12/27 05:34:05;;;;;;;;;14.75;9.50;;;;;7.75;65.30;102707.88;2412659;28;45407;-78
2022/12/27 05:35:16;;;;;;;;;13.50;9.50;;;;;7.73;64.99;102700.91;2412483;28;45304;-77
2022/12/27 05:36:26;;;;;;;;;14.25;10.25;;;;;7.75;64.71;102699.19;2412640;28;45260;-77
2022/12/27 05:37:36;;;;;;;;;13.25;9.75;;;;;7.74;65.19;102697.41;2412669;28;46047;-77
2022/12/27 05:38:47;;;;;;;;;10.50;10.00;;;;;7.74;64.86;102705.25;2410876;28;45468;-78
2022/12/27 05:39:57;;;;;;;;;18.75;13.00;;;;;7.76;65.12;102711.38;2408577;28;45204;-78
2022/12/27 05:41:08;;;;;;;;;15.00;13.00;;;;;7.75;65.17;102707.88;2403121;28;45139;-78
2022/12/27 05:42:18;;;;;;;;;11.75;9.50;;;;;7.76;65.51;102709.66;2403059;28;46382;-78
2022/12/27 05:43:30;;;;;;;;;17.50;13.75;;;;;7.78;65.47;102712.28;2403022;28;45471;-78
2022/12/27 05:44:40;;;;;;;;;16.50;12.25;;;;;7.79;65.18;102715.78;2402780;28;45409;-78
2022/12/27 05:45:50;;;;;;;;;12.75;10.25;;;;;7.78;65.32;102711.44;2403154;28;45308;-78
2022/12/27 05:47:01;;;;;;;;;12.75;10.00;;;;;7.77;64.86;102715.78;2403538;28;45538;-77
2022/12/27 05:48:11;;;;;;;;;10.25;9.25;;;;;7.77;65.30;102713.16;2412561;28;45207;-77
2022/12/27 05:49:22;;;;;;;;;12.00;10.75;;;;;7.76;65.30;102709.66;2412045;28;46455;-78
2022/12/27 05:50:32;;;;;;;;;12.50;11.25;;;;;7.76;64.74;102709.66;2412566;28;44857;-78
2022/12/27 05:51:42;;;;;;;;;12.25;11.25;;;;;7.75;64.73;102712.28;2412398;28;45333;-78
2022/12/27 05:52:54;;;;;;;;;9.00;9.00;;;;;7.74;64.88;102713.13;2412513;28;45221;-78
2022/12/27 05:54:04;;;;;;;;;12.75;11.25;;;;;7.73;65.15;102708.75;2412316;28;46760;-78
2022/12/27 05:55:15;;;;;;;;;9.25;8.75;;;;;7.73;64.76;102703.53;2402049;28;45162;-78
2022/12/27 05:56:25;;;;;;;;;11.50;9.00;;;;;7.72;64.52;102707.88;2395256;28;46044;-78
2022/12/27 05:57:35;;;;;;;;;13.00;10.00;;;;;7.73;64.78;102708.75;2404224;28;44770;-78
2022/12/27 05:58:46;;;;;;;;;17.00;10.50;;;;;7.71;64.79;102705.22;2412381;28;46619;-78
2022/12/27 05:59:56;;;;;;;;;14.25;9.50;;;;;7.72;64.76;102701.75;2412440;28;45270;-78
2022/12/27 06:01:11;;;;;;;;;19.75;14.50;;;;;7.71;64.81;102700.00;2412404;28;45198;-78
2022/12/27 06:02:22;;;;;;;;;14.25;14.00;;;;;7.72;64.93;102693.91;2412148;28;44746;-78
2022/12/27 06:03:32;;;;;;;;;13.50;13.50;;;;;7.69;64.97;102686.00;2412141;28;45425;-78
2022/12/27 06:04:42;;;;;;;;;16.25;14.75;;;;;7.68;65.18;102685.13;2411280;28;45479;-78
2022/12/27 06:06:00;;;;;;;;;15.00;15.00;;;;;7.70;64.82;102687.78;2402852;28;45391;-78
2022/12/27 06:07:10;;;;;;;;;15.75;14.00;;;;;7.69;64.80;102686.00;2402972;28;45253;-78
2022/12/27 06:08:20;;;;;;;;;12.25;10.25;;;;;7.68;64.88;102677.28;2402763;28;45452;-78
2022/12/27 06:09:31;;;;;;;;;16.50;16.00;;;;;7.68;65.02;102684.28;2402696;28;45394;-78
2022/12/27 06:10:41;;;;;;;;;18.00;16.25;;;;;7.66;64.96;102684.22;2407711;28;45431;-78
2022/12/27 06:11:51;;;;;;;;;23.25;16.00;;;;;7.66;64.84;102676.38;2412313;28;44776;-78
2022/12/27 06:13:03;;;;;;;;;20.50;17.00;;;;;7.65;64.68;102683.34;2399971;28;47346;-78
2022/12/27 06:14:13;;;;;;;;;19.00;15.50;;;;;7.64;64.80;102679.00;2396318;28;44712;-78
2022/12/27 06:15:24;;;;;;;;;16.50;16.00;;;;;7.63;65.38;102681.59;2408234;28;45672;-78
2022/12/27 06:16:34;;;;;;;;;18.00;16.00;;;;;7.62;65.09;102685.97;2410398;28;45217;-77
2022/12/27 06:17:44;;;;;;;;;18.00;15.75;;;;;7.63;64.94;102690.31;2399844;28;46056;-78
2022/12/27 06:18:55;;;;;;;;;17.25;14.50;;;;;7.61;65.29;102683.31;2404752;28;44823;-78
2022/12/27 06:20:05;;;;;;;;;15.00;13.25;;;;;7.61;65.05;102684.19;2410370;28;45449;-78
2022/12/27 06:21:19;;;;;;;;;16.50;13.50;;;;;7.60;65.34;102679.84;2401853;28;45251;-78
2022/12/27 06:22:29;;;;;;;;;19.75;15.25;;;;;7.60;65.41;102682.44;2405108;28;45456;-78
2022/12/27 06:23:43;;;;;;;;;20.00;15.25;;;;;7.60;65.21;102687.69;2411029;28;45250;-78
2022/12/27 06:24:53;;;;;;;;;15.75;15.25;;;;;7.59;65.51;102685.91;2402631;28;46343;-78
2022/12/27 06:26:06;;;;;;;;;17.50;15.25;;;;;7.59;65.89;102679.78;2407860;28;45850;-78
2022/12/27 06:27:16;;;;;;;;;20.50;14.50;;;;;7.58;65.47;102689.38;2411946;28;46254;-78
2022/12/27 06:28:27;;;;;;;;;10.00;10.00;;;;;7.58;65.65;102681.53;2410423;28;45322;-78
2022/12/27 06:29:37;;;;;;;;;18.25;15.50;;;;;7.58;65.51;102678.91;2402623;28;45278;-78
2022/12/27 06:30:48;;;;;;;;;19.75;16.00;;;;;7.58;65.39;102673.69;2410762;28;45512;-78
2022/12/27 06:31:58;;;;;;;;;19.75;15.50;;;;;7.58;65.62;102678.91;2407239;28;45239;-78
2022/12/27 06:33:09;;;;;;;;;16.75;15.50;;;;;7.59;65.55;102671.94;2402887;28;45475;-78
2022/12/27 06:34:19;;;;;;;;;17.75;13.75;;;;;7.59;65.10;102674.56;2402641;28;45364;-78
2022/12/27 06:35:29;;;;;;;;;19.25;15.50;;;;;7.59;65.83;102671.94;2409168;28;45348;-78
2022/12/27 06:36:40;;;;;;;;;18.25;15.25;;;;;7.59;65.38;102670.22;2412108;28;45436;-78
2022/12/27 06:37:50;;;;;;;;;22.25;18.25;;;;;7.60;65.49;102674.59;2411463;28;44651;-78
2022/12/27 06:39:01;;;;;;;;;14.50;14.00;;;;;7.61;65.82;102678.94;2410915;28;45415;-78
2022/12/27 06:40:11;;;;;;;;;14.75;13.50;;;;;7.61;65.61;102670.22;2410821;28;45258;-78
2022/12/27 06:41:21;;;;;;;;;16.00;14.50;;;;;7.61;66.00;102678.94;2408811;28;45348;-78
2022/12/27 06:42:32;;;;;;;;;21.00;16.00;;;;;7.61;65.63;102672.84;2398333;28;45159;-78
2022/12/27 06:43:43;;;;;;;;;17.25;15.50;;;;;7.62;65.63;102678.09;2394983;28;47943;-78
2022/12/27 06:44:53;;;;;;;;;17.75;13.25;;;;;7.62;65.76;102678.09;2399580;28;45350;-77
2022/12/27 06:46:15;;;;;;;;;14.75;12.50;;;;;7.63;65.63;102674.59;2397486;28;47725;-77
2022/12/27 06:47:25;;;;;;;;;12.75;12.75;;;;;7.64;65.73;102672.88;2394340;28;47041;-77
2022/12/27 06:48:36;;;;;;;;;21.75;15.25;;;;;7.65;65.55;102678.13;2401326;28;46201;-77
2022/12/27 06:49:46;;;;;;;;;18.50;15.00;;;;;7.64;65.43;102676.38;2406318;28;45231;-77
2022/12/27 06:50:57;;;;;;;;;16.00;14.00;;;;;7.66;65.45;102673.75;2407190;28;46569;-77
2022/12/27 06:52:07;;;;;;;;;17.75;13.75;;;;;7.68;65.65;102671.19;2402249;28;45243;-77
2022/12/27 06:53:17;;;;;;;;;17.75;17.00;;;;;7.67;65.24;102678.16;2401726;28;45748;-78
2022/12/27 06:54:28;;;;;;;;;14.25;13.25;;;;;7.69;65.44;102675.53;2405295;28;45312;-78
2022/12/27 06:55:38;;;;;;;;;19.75;17.50;;;;;7.69;65.57;102675.53;2407948;28;45610;-77
2022/12/27 06:56:48;;;;;;;;;16.00;12.00;;;;;7.70;65.74;102679.94;2407733;28;45302;-77
2022/12/27 06:57:59;;;;;;;;;16.50;15.00;;;;;7.71;65.50;102676.44;2403692;28;46277;-77
2022/12/27 06:59:09;;;;;;;;;20.00;17.00;;;;;7.70;65.35;102683.44;2406229;28;45531;-77
2022/12/27 07:00:19;;;;;;;;;17.50;14.25;;;;;7.69;65.56;102676.41;2408208;28;46309;-78
2022/12/27 07:01:30;;;;;;;;;14.50;13.50;;;;;7.69;65.36;102673.81;2402505;28;45325;-78
2022/12/27 07:02:41;;;;;;;;;21.50;16.00;;;;;7.69;65.63;102676.41;2404138;28;45646;-78
2022/12/27 07:03:56;;;;;;;;;17.25;12.75;;;;;7.71;65.83;102673.81;2409333;28;45420;-78
2022/12/27 07:05:07;;;;;;;;;17.75;16.00;;;;;7.70;65.70;102677.31;2406659;28;45384;-77
2022/12/27 07:06:19;;;;;;;;;14.25;12.00;;;;;7.71;65.96;102676.44;2406622;28;46371;-77
2022/12/27 07:07:30;;;;;;;;;18.00;16.50;;;;;7.71;65.71;102676.44;2403613;28;45523;-78
2022/12/27 07:08:40;;;;;;;;;15.00;12.25;;;;;7.71;65.35;102673.81;2403518;28;44640;-78
2022/12/27 07:09:51;;;;;;;;;16.25;15.00;;;;;7.71;65.84;102673.81;2410387;28;45486;-78
2022/12/27 07:11:03;;;;;;;;;16.25;12.75;;;;;7.72;65.71;102679.09;2413612;28;45311;-77
2022/12/27 07:12:14;;;;;;;;;14.75;13.00;;;;;7.74;66.11;102679.09;2405952;28;45508;-77
2022/12/27 07:13:24;;;;;;;;;20.25;14.75;;;;;7.72;65.70;102675.56;2393876;28;45251;-77
2022/12/27 07:14:35;;;;;;;;;20.25;14.75;;;;;7.72;65.75;102670.34;2396756;28;45275;-78
2022/12/27 07:15:45;;;;;;;;;16.75;15.00;;;;;7.73;65.35;102678.19;2405102;28;45294;-78
2022/12/27 07:16:55;;;;;;;;;20.25;15.50;;;;;7.75;65.86;102680.84;2401743;28;47929;-79
2022/12/27 07:18:06;;;;;;;;;14.25;12.50;;;;;7.74;65.48;102681.69;2401243;28;45203;-79
2022/12/27 07:19:16;;;;;;;;;18.25;16.00;;;;;7.75;65.43;102686.09;2410399;28;45324;-79